Time;durP1;ratioP1;P1;durP2;ratioP2;P2;SDS_P1;SDS_P2;PMS_P1;PMS_P2;Temp;Humidity;BMP_temperature;BMP_pressure;BME280_temperature;BME280_humidity;BME280_pressure;Samples;Min_cycle;Max_cycle;Signal;HPM_P1;HPM_P2
2022/06/28 00:01:32;;;;;;;9.85;6.00;;;14.10;99.90;;;;;;4140518;28;20061;-95
2022/06/28 00:03:33;;;;;;;10.18;6.32;;;14.40;99.90;;;;;;4141115;28;20503;-95
2022/06/28 00:05:34;;;;;;;12.27;6.10;;;14.30;99.90;;;;;;4138435;28;20038;-95
2022/06/28 00:07:36;;;;;;;11.05;6.13;;;14.30;99.90;;;;;;4137952;28;20105;-96
2022/06/28 00:09:37;;;;;;;8.77;6.00;;;14.30;99.90;;;;;;4138361;28;20053;-95
2022/06/28 00:11:39;;;;;;;10.63;7.03;;;14.30;99.90;;;;;;4138511;28;20521;-95
2022/06/28 00:13:40;;;;;;;10.85;6.05;;;14.30;99.90;;;;;;4137689;28;20074;-96
2022/06/28 00:18:03;;;;;;;9.63;5.55;;;14.30;99.90;;;;;;4162365;28;20033;-94
2022/06/28 00:20:05;;;;;;;7.88;5.40;;;14.30;99.90;;;;;;4152468;28;20078;-95
2022/06/28 00:22:12;;;;;;;10.95;5.10;;;14.30;99.90;;;;;;4152771;28;20034;-95
2022/06/28 00:24:15;;;;;;;10.45;5.45;;;14.20;99.90;;;;;;4152581;28;20034;-95
2022/06/28 00:26:16;;;;;;;9.38;5.53;;;14.30;99.90;;;;;;4152246;28;20050;-95
2022/06/28 00:28:18;;;;;;;8.68;5.50;;;14.20;99.90;;;;;;4152599;28;20027;-95
2022/06/28 00:30:18;;;;;;;8.95;5.03;;;14.20;99.90;;;;;;4151718;28;20042;-95
2022/06/28 00:32:21;;;;;;;6.72;4.65;;;14.20;99.90;;;;;;4152549;28;20057;-95
2022/06/28 00:34:25;;;;;;;7.50;4.82;;;14.20;99.90;;;;;;4152445;28;20037;-94
2022/06/28 00:36:26;;;;;;;8.70;5.07;;;14.20;99.90;;;;;;4152223;28;20022;-95
2022/06/28 00:38:28;;;;;;;11.23;5.30;;;14.20;99.90;;;;;;4149427;28;20042;-95
2022/06/28 00:40:29;;;;;;;10.05;5.57;;;14.10;99.90;;;;;;4144873;28;20042;-94
2022/06/28 00:42:30;;;;;;;11.40;5.82;;;14.20;99.90;;;;;;4144848;28;20046;-95
2022/06/28 00:44:33;;;;;;;10.15;5.32;;;14.10;99.90;;;;;;4145618;28;20038;-95
2022/06/28 00:46:34;;;;;;;9.00;5.07;;;14.20;99.90;;;;;;4144837;28;20066;-94
2022/06/28 00:48:37;;;;;;;7.90;4.60;;;14.10;99.90;;;;;;4144357;28;20050;-96
2022/06/28 00:50:41;;;;;;;12.00;4.75;;;14.10;99.90;;;;;;4144670;28;20042;-96
2022/06/28 00:53:06;;;;;;;8.88;5.40;;;14.10;99.90;;;;;;4135732;28;20050;-95
2022/06/28 00:55:08;;;;;;;7.82;5.20;;;14.00;99.90;;;;;;4135714;28;20541;-95
2022/06/28 00:57:09;;;;;;;8.30;4.70;;;14.00;99.90;;;;;;4134662;28;20046;-94
2022/06/28 00:59:11;;;;;;;8.73;5.13;;;13.90;99.90;;;;;;4142125;28;20108;-95
2022/06/28 01:01:19;;;;;;;8.90;5.18;;;13.70;99.90;;;;;;4136101;28;20042;-95
2022/06/28 01:03:22;;;;;;;9.55;5.20;;;14.00;99.90;;;;;;4138655;28;20098;-95
2022/06/28 01:05:24;;;;;;;21.85;5.13;;;13.90;99.90;;;;;;4138888;28;20043;-95
2022/06/28 01:07:25;;;;;;;8.02;5.22;;;14.00;99.90;;;;;;4137739;28;20038;-95
2022/06/28 01:09:27;;;;;;;9.30;6.32;;;13.90;99.90;;;;;;4136864;28;20074;-95
2022/06/28 01:11:28;;;;;;;15.18;4.80;;;14.00;99.90;;;;;;4137659;28;20046;-96
2022/06/28 01:13:29;;;;;;;8.52;4.80;;;13.90;99.90;;;;;;4137818;28;20086;-95
2022/06/28 01:15:30;;;;;;;11.52;5.45;;;13.90;99.90;;;;;;4138298;28;20110;-95
2022/06/28 01:17:32;;;;;;;7.38;5.45;;;13.90;99.90;;;;;;4137352;28;20510;-96
2022/06/28 01:19:34;;;;;;;7.65;5.43;;;13.90;99.90;;;;;;4137735;28;20046;-96
2022/06/28 01:21:41;;;;;;;9.90;5.38;;;13.80;99.90;;;;;;4137470;28;20415;-95
2022/06/28 01:23:44;;;;;;;11.98;5.18;;;13.80;99.90;;;;;;4137629;28;20117;-96
2022/06/28 01:25:45;;;;;;;10.23;5.43;;;13.70;99.90;;;;;;4138618;28;20125;-96
2022/06/28 01:27:48;;;;;;;9.30;4.68;;;13.80;99.90;;;;;;4138641;28;20050;-94
2022/06/28 01:29:51;;;;;;;8.55;4.90;;;14.00;99.90;;;;;;4138207;28;20383;-95
2022/06/28 01:31:53;;;;;;;12.23;5.18;;;13.80;99.90;;;;;;4138293;28;20081;-96
2022/06/28 01:33:55;;;;;;;9.80;4.82;;;13.70;99.90;;;;;;4138377;28;20109;-95
2022/06/28 01:35:57;;;;;;;9.23;4.80;;;13.70;99.90;;;;;;4138913;28;20175;-96
2022/06/28 01:37:59;;;;;;;11.82;5.13;;;13.70;99.90;;;;;;4139117;28;20084;-95
2022/06/28 01:40:04;;;;;;;13.82;5.20;;;13.70;99.90;;;;;;4143042;28;20058;-94
2022/06/28 01:42:05;;;;;;;11.93;4.82;;;13.70;99.90;;;;;;4139194;28;20050;-94
2022/06/28 01:44:09;;;;;;;8.38;4.60;;;13.70;99.90;;;;;;4139960;28;20050;-94
2022/06/28 01:46:10;;;;;;;7.13;4.88;;;13.70;99.90;;;;;;4139838;28;20049;-94
2022/06/28 01:48:11;;;;;;;9.48;4.50;;;13.70;99.90;;;;;;4141563;28;20133;-94
2022/06/28 01:50:12;;;;;;;7.15;4.53;;;13.70;99.90;;;;;;4142488;28;20046;-94
2022/06/28 01:52:13;;;;;;;6.78;4.22;;;13.70;99.90;;;;;;4142948;28;20120;-94
2022/06/28 01:54:16;;;;;;;9.90;4.25;;;13.60;99.90;;;;;;4144440;28;20127;-94
2022/06/28 01:56:18;;;;;;;8.45;4.00;;;13.60;99.90;;;;;;4147362;28;20030;-94
2022/06/28 01:58:19;;;;;;;9.02;3.88;;;13.60;99.90;;;;;;4148782;28;20078;-94
2022/06/28 02:00:20;;;;;;;8.77;4.60;;;13.60;99.90;;;;;;4152157;28;20038;-93
2022/06/28 02:02:24;;;;;;;8.55;4.35;;;13.60;99.90;;;;;;4152286;28;20070;-94
2022/06/28 02:04:27;;;;;;;8.82;4.25;;;13.60;99.90;;;;;;4152909;28;20046;-94
2022/06/28 02:06:28;;;;;;;7.45;3.72;;;13.60;99.90;;;;;;4151187;28;20110;-94
2022/06/28 02:08:29;;;;;;;8.20;4.22;;;13.60;99.90;;;;;;4141805;28;20046;-94
2022/06/28 02:10:30;;;;;;;10.60;3.95;;;13.50;99.90;;;;;;4141266;28;20043;-95
2022/06/28 02:12:31;;;;;;;6.47;3.97;;;13.50;99.90;;;;;;4143422;28;20043;-95
2022/06/28 02:14:34;;;;;;;7.65;4.00;;;13.50;99.90;;;;;;4137393;28;20125;-94
2022/06/28 02:16:36;;;;;;;6.68;4.45;;;13.50;99.90;;;;;;4144525;28;20046;-94
2022/06/28 02:18:37;;;;;;;8.48;4.18;;;13.50;99.90;;;;;;4144901;28;20529;-95
2022/06/28 02:20:41;;;;;;;9.88;4.55;;;13.50;99.90;;;;;;4145040;28;20046;-94
2022/06/28 02:22:44;;;;;;;8.95;4.88;;;13.50;99.90;;;;;;4140417;28;20050;-94
2022/06/28 02:24:45;;;;;;;8.07;4.28;;;13.50;99.90;;;;;;4144090;28;20078;-94
2022/06/28 02:26:46;;;;;;;10.90;5.18;;;13.50;99.90;;;;;;4155888;28;20061;-94
2022/06/28 02:28:47;;;;;;;8.73;4.93;;;13.50;99.90;;;;;;4138219;28;20046;-94
2022/06/28 02:30:47;;;;;;;10.05;4.82;;;13.40;99.90;;;;;;4137750;28;20100;-94
2022/06/28 02:32:48;;;;;;;9.45;5.25;;;13.40;99.90;;;;;;4136673;28;20053;-94
2022/06/28 02:41:48;;;;;;;9.30;4.53;;;13.30;99.90;;;;;;4153769;28;19929;-94
2022/06/28 02:43:49;;;;;;;12.77;4.20;;;13.30;99.90;;;;;;4137296;28;20046;-94
2022/06/28 02:45:52;;;;;;;9.48;3.95;;;13.30;99.90;;;;;;4136930;28;20399;-95
2022/06/28 02:47:53;;;;;;;10.10;4.93;;;13.30;99.90;;;;;;4136292;28;20085;-95
2022/06/28 02:49:54;;;;;;;12.35;4.05;;;13.30;99.90;;;;;;4136511;28;20429;-94
2022/06/28 02:51:55;;;;;;;8.30;5.10;;;13.30;99.90;;;;;;4136090;28;20050;-94
2022/06/28 02:53:56;;;;;;;8.50;4.63;;;13.30;99.90;;;;;;4154281;28;20046;-94
2022/06/28 02:55:59;;;;;;;8.10;4.47;;;13.20;99.90;;;;;;4137084;28;20053;-95
2022/06/28 02:58:01;;;;;;;13.27;4.38;;;13.60;99.90;;;;;;4137454;28;20042;-95
2022/06/28 03:00:07;;;;;;;11.98;4.25;;;13.20;99.90;;;;;;4137954;28;20410;-94
2022/06/28 03:02:10;;;;;;;6.78;4.07;;;13.20;99.90;;;;;;4153386;28;20053;-95
2022/06/28 03:04:12;;;;;;;13.48;5.05;;;13.20;99.90;;;;;;4136048;28;20092;-94
2022/06/28 03:06:15;;;;;;;11.20;4.93;;;13.20;99.90;;;;;;4137235;28;20129;-95
2022/06/28 03:08:19;;;;;;;9.10;4.75;;;13.20;99.90;;;;;;4137014;28;20101;-95
2022/06/28 03:10:22;;;;;;;9.68;4.10;;;13.20;99.90;;;;;;4137042;28;20038;-94
2022/06/28 03:12:25;;;;;;;7.40;4.20;;;13.20;99.90;;;;;;4136661;28;20054;-95
2022/06/28 03:14:28;;;;;;;9.48;4.78;;;13.20;99.90;;;;;;4138002;28;20129;-94
2022/06/28 03:16:29;;;;;;;9.38;4.63;;;13.20;99.90;;;;;;4149764;28;20065;-93
2022/06/28 03:18:30;;;;;;;8.32;4.45;;;13.10;99.90;;;;;;4141697;28;20070;-94
2022/06/28 03:20:32;;;;;;;9.43;4.35;;;13.20;99.90;;;;;;4140886;28;20073;-94
2022/06/28 03:22:34;;;;;;;9.77;4.65;;;13.10;99.90;;;;;;4140872;28;20053;-94
2022/06/28 03:24:37;;;;;;;12.20;4.60;;;13.00;99.90;;;;;;4137830;28;20055;-95
2022/06/28 03:26:45;;;;;;;9.77;4.50;;;13.10;99.90;;;;;;4137478;28;20053;-96
2022/06/28 03:28:46;;;;;;;9.93;4.70;;;13.10;99.90;;;;;;4139333;28;20093;-95
2022/06/28 03:30:47;;;;;;;11.63;5.20;;;13.10;99.90;;;;;;4134522;28;20070;-96
2022/06/28 03:32:49;;;;;;;7.80;4.80;;;13.10;99.90;;;;;;4135406;28;20050;-96
2022/06/28 03:34:50;;;;;;;10.52;5.00;;;13.10;99.90;;;;;;4134451;28;20042;-94
2022/06/28 03:36:52;;;;;;;8.90;4.97;;;13.10;99.90;;;;;;4119495;28;20050;-95
2022/06/28 03:38:55;;;;;;;9.77;5.57;;;13.10;99.90;;;;;;4118925;28;20053;-95
2022/06/28 03:40:55;;;;;;;23.40;6.00;;;13.10;99.90;;;;;;4124344;28;20050;-93
2022/06/28 03:42:58;;;;;;;10.75;4.93;;;13.10;99.90;;;;;;4135013;28;20361;-94
2022/06/28 03:44:59;;;;;;;11.48;4.53;;;13.10;99.90;;;;;;4134742;28;20046;-93
2022/06/28 03:47:03;;;;;;;11.70;4.60;;;13.20;99.90;;;;;;4136001;28;20141;-93
2022/06/28 03:49:05;;;;;;;8.25;4.05;;;13.10;99.90;;;;;;4139968;28;20046;-94
2022/06/28 03:51:06;;;;;;;11.30;4.60;;;13.20;99.90;;;;;;4135565;28;20057;-94
2022/06/28 03:53:07;;;;;;;9.60;5.20;;;13.20;99.90;;;;;;4135399;28;20062;-92
2022/06/28 03:55:08;;;;;;;10.95;4.43;;;13.20;99.90;;;;;;4152518;28;20046;-94
2022/06/28 03:57:09;;;;;;;10.85;5.55;;;13.20;99.90;;;;;;4134639;28;20046;-93
2022/06/28 03:59:14;;;;;;;10.73;4.78;;;13.30;99.90;;;;;;4133925;28;20096;-91
2022/06/28 04:01:16;;;;;;;8.27;4.80;;;13.30;99.90;;;;;;4135165;28;20087;-91
2022/06/28 04:03:19;;;;;;;13.10;4.70;;;13.30;99.90;;;;;;4133911;28;20038;-96
2022/06/28 04:05:20;;;;;;;7.30;4.15;;;13.30;99.90;;;;;;4135087;28;20141;-96
2022/06/28 04:07:21;;;;;;;9.18;4.78;;;13.30;99.90;;;;;;4135229;28;20050;-95
2022/06/28 04:09:22;;;;;;;8.90;4.57;;;13.30;99.90;;;;;;4134546;28;20050;-96
2022/06/28 04:11:23;;;;;;;7.20;4.03;;;13.30;99.90;;;;;;4136959;28;20205;-96
2022/06/28 04:13:33;;;;;;;11.80;4.60;;;13.40;99.90;;;;;;4135224;28;20050;-96
2022/06/28 04:15:35;;;;;;;8.63;4.63;;;13.40;99.90;;;;;;4132237;28;20069;-94
2022/06/28 04:17:39;;;;;;;9.32;4.88;;;13.40;99.90;;;;;;4132801;28;20038;-94
2022/06/28 04:19:39;;;;;;;12.32;5.78;;;13.40;99.90;;;;;;4134893;28;20050;-93
2022/06/28 04:21:42;;;;;;;8.05;4.70;;;13.30;99.90;;;;;;4134379;28;20093;-93
2022/06/28 04:23:46;;;;;;;11.35;5.28;;;13.10;99.90;;;;;;4134615;28;20053;-94
2022/06/28 04:25:47;;;;;;;9.77;4.43;;;13.40;99.90;;;;;;4134391;28;20046;-93
2022/06/28 04:27:48;;;;;;;14.18;4.13;;;13.30;99.90;;;;;;4134413;28;20113;-94
2022/06/28 04:29:49;;;;;;;12.50;4.60;;;13.30;99.90;;;;;;4134583;28;20043;-93
2022/06/28 04:31:50;;;;;;;11.00;4.82;;;13.40;99.90;;;;;;4135496;28;20137;-94
2022/06/28 04:33:52;;;;;;;13.23;4.00;;;13.40;99.90;;;;;;4134515;28;20038;-93
2022/06/28 04:35:55;;;;;;;7.78;4.63;;;13.40;99.90;;;;;;4134196;28;20097;-94
2022/06/28 04:37:59;;;;;;;9.25;3.92;;;13.40;99.90;;;;;;4136122;28;20062;-91
2022/06/28 04:40:05;;;;;;;9.70;4.43;;;13.40;99.90;;;;;;4138550;28;20094;-95
2022/06/28 04:42:06;;;;;;;9.93;4.15;;;13.40;99.90;;;;;;4139135;28;20046;-95
2022/06/28 04:44:08;;;;;;;11.90;4.95;;;13.40;99.90;;;;;;4138554;28;20080;-96
2022/06/28 04:46:09;;;;;;;8.65;4.57;;;13.50;99.90;;;;;;4138019;28;20521;-96
2022/06/28 04:48:10;;;;;;;15.98;4.45;;;13.50;99.90;;;;;;4137951;28;20133;-95
2022/06/28 04:50:11;;;;;;;8.32;4.22;;;13.60;99.90;;;;;;4137572;28;20046;-95
2022/06/28 04:52:11;;;;;;;8.35;4.20;;;13.60;99.90;;;;;;4154081;28;20091;-95
2022/06/28 04:54:12;;;;;;;17.17;5.05;;;13.60;99.90;;;;;;4138091;28;20085;-95
2022/06/28 04:56:14;;;;;;;14.13;4.38;;;13.70;99.90;;;;;;4157830;28;20143;-96
2022/06/28 04:58:16;;;;;;;9.73;4.25;;;13.70;99.90;;;;;;4138555;28;20053;-94
2022/06/28 05:00:17;;;;;;;8.15;3.80;;;13.70;99.90;;;;;;4138725;28;20049;-95
2022/06/28 05:02:19;;;;;;;6.65;3.45;;;13.80;99.90;;;;;;4137999;28;20050;-94
2022/06/28 05:04:20;;;;;;;9.75;3.72;;;13.80;99.90;;;;;;4138267;28;20081;-94
2022/06/28 05:06:21;;;;;;;9.38;3.60;;;13.90;99.90;;;;;;4137708;28;20042;-95
2022/06/28 05:08:24;;;;;;;9.25;3.22;;;14.00;99.90;;;;;;4137512;28;20054;-95
2022/06/28 05:10:26;;;;;;;11.15;3.90;;;14.00;99.90;;;;;;4137413;28;20133;-96
2022/06/28 05:12:27;;;;;;;6.88;2.92;;;14.10;99.90;;;;;;4137274;28;20054;-95
2022/06/28 05:14:28;;;;;;;6.47;2.75;;;14.10;99.90;;;;;;4137768;28;20514;-96
2022/06/28 05:16:29;;;;;;;8.65;3.38;;;14.20;99.90;;;;;;4137874;28;20046;-96
2022/06/28 05:18:31;;;;;;;5.35;2.33;;;14.20;99.90;;;;;;4137247;28;20573;-95
2022/06/28 05:20:32;;;;;;;11.52;3.20;;;14.30;99.90;;;;;;4137042;28;20042;-95
2022/06/28 05:22:33;;;;;;;8.60;2.70;;;14.30;99.90;;;;;;4136698;28;20065;-95
2022/06/28 05:24:34;;;;;;;3.85;2.38;;;14.40;99.90;;;;;;4137209;28;20073;-95
2022/06/28 05:26:35;;;;;;;8.90;2.65;;;14.40;99.90;;;;;;4136919;28;20557;-95
2022/06/28 05:28:36;;;;;;;6.70;2.60;;;14.50;99.90;;;;;;4137560;28;20089;-96
2022/06/28 05:30:37;;;;;;;9.82;2.80;;;14.50;99.90;;;;;;4136942;28;20116;-96
2022/06/28 05:32:40;;;;;;;4.50;2.20;;;14.60;99.90;;;;;;4136988;28;20486;-96
2022/06/28 05:34:43;;;;;;;6.47;2.45;;;14.70;99.90;;;;;;4137385;28;20046;-95
2022/06/28 05:36:45;;;;;;;8.45;2.30;;;14.70;99.90;;;;;;4137892;28;20072;-95
2022/06/28 05:38:46;;;;;;;8.25;2.70;;;14.80;99.90;;;;;;4136985;28;20070;-95
2022/06/28 05:40:46;;;;;;;8.73;2.92;;;14.90;99.90;;;;;;4137463;28;20038;-95
2022/06/28 05:42:47;;;;;;;9.05;2.63;;;14.90;99.90;;;;;;4136890;28;20050;-94
2022/06/28 05:44:48;;;;;;;5.07;2.42;;;15.00;99.90;;;;;;4137444;28;20123;-95
2022/06/28 05:46:52;;;;;;;5.05;2.00;;;15.00;99.90;;;;;;4137709;28;20105;-94
2022/06/28 05:48:52;;;;;;;4.60;2.47;;;15.10;99.90;;;;;;4136760;28;20050;-95
2022/06/28 05:50:54;;;;;;;8.18;3.38;;;15.10;99.90;;;;;;4137391;28;20054;-95
2022/06/28 05:52:55;;;;;;;5.05;2.38;;;15.20;99.90;;;;;;4139169;28;20077;-95
2022/06/28 05:54:56;;;;;;;6.43;1.90;;;15.30;99.90;;;;;;4138812;28;20046;-95
2022/06/28 05:56:57;;;;;;;7.78;1.80;;;15.30;99.90;;;;;;4146887;28;20049;-95
2022/06/28 05:58:58;;;;;;;5.68;1.73;;;15.30;99.90;;;;;;4148634;28;20057;-95
2022/06/28 06:01:01;;;;;;;4.45;2.33;;;15.40;99.90;;;;;;4139217;28;20520;-95
2022/06/28 06:03:03;;;;;;;6.10;2.05;;;15.40;99.90;;;;;;4139210;28;20050;-95
2022/06/28 06:05:14;;;;;;;6.43;2.00;;;15.50;99.90;;;;;;4139786;28;20046;-96
2022/06/28 06:07:16;;;;;;;3.83;2.40;;;15.50;99.90;;;;;;4138805;28;20050;-95
2022/06/28 06:09:18;;;;;;;4.60;2.20;;;15.60;99.90;;;;;;4138113;28;20042;-96
2022/06/28 06:11:19;;;;;;;8.32;2.67;;;15.60;99.90;;;;;;4137744;28;20053;-96
2022/06/28 06:13:21;;;;;;;6.10;2.25;;;15.70;99.90;;;;;;4139243;28;20046;-96
2022/06/28 06:15:25;;;;;;;4.65;2.20;;;15.80;99.90;;;;;;4139455;28;20050;-94
2022/06/28 06:17:25;;;;;;;6.20;2.38;;;15.80;99.90;;;;;;4137785;28;20085;-96
2022/06/28 06:19:27;;;;;;;7.00;2.15;;;15.80;99.90;;;;;;4138565;28;20046;-96
2022/06/28 06:21:34;;;;;;;5.32;2.10;;;15.90;99.90;;;;;;4138564;28;20046;-96
2022/06/28 06:23:36;;;;;;;3.70;2.10;;;15.90;99.90;;;;;;4139817;28;20084;-96
2022/06/28 06:25:37;;;;;;;10.15;2.78;;;16.00;99.90;;;;;;4139144;28;20057;-95
2022/06/28 06:27:39;;;;;;;4.38;2.08;;;16.00;99.90;;;;;;4137111;28;20050;-96
2022/06/28 06:29:41;;;;;;;7.03;2.33;;;16.00;99.90;;;;;;4136143;28;20038;-94
2022/06/28 06:31:43;;;;;;;10.35;2.90;;;16.10;99.90;;;;;;4135348;28;20042;-94
2022/06/28 06:33:43;;;;;;;6.40;3.00;;;16.00;99.90;;;;;;4135467;28;20112;-94
2022/06/28 06:35:44;;;;;;;4.20;2.33;;;16.10;99.90;;;;;;4137593;28;20042;-95
2022/06/28 06:38:00;;;;;;;9.07;2.30;;;16.10;99.90;;;;;;4136480;28;20073;-93
2022/06/28 06:40:03;;;;;;;7.68;2.97;;;16.00;99.90;;;;;;4136400;28;20054;-94
2022/06/28 06:42:13;;;;;;;5.78;2.53;;;16.20;99.90;;;;;;4142018;28;20052;-95
2022/06/28 06:44:21;;;;;;;5.20;2.17;;;16.10;99.90;;;;;;4144141;28;20049;-96
2022/06/28 06:46:23;;;;;;;5.28;2.15;;;16.30;99.90;;;;;;4136729;28;20118;-94
2022/06/28 06:48:26;;;;;;;6.85;1.88;;;16.30;99.90;;;;;;4139037;28;20049;-91
2022/06/28 06:50:28;;;;;;;7.30;2.30;;;16.40;99.90;;;;;;4145373;28;20046;-93
2022/06/28 06:52:29;;;;;;;10.75;2.60;;;16.40;99.90;;;;;;4142805;28;20054;-94
2022/06/28 06:54:29;;;;;;;12.30;2.75;;;16.40;99.90;;;;;;4122410;28;20070;-94
2022/06/28 06:56:38;;;;;;;6.00;3.45;;;16.50;99.90;;;;;;4136321;28;20137;-94
2022/06/28 06:58:39;;;;;;;8.27;4.28;;;16.60;99.90;;;;;;4122263;28;20498;-95
2022/06/28 07:00:40;;;;;;;5.95;3.25;;;16.60;99.90;;;;;;4123069;28;20074;-93
2022/06/28 07:02:42;;;;;;;8.00;2.60;;;16.70;99.90;;;;;;4123376;28;20589;-95
2022/06/28 07:04:44;;;;;;;9.45;3.13;;;16.70;99.90;;;;;;4122250;28;20042;-94
2022/06/28 07:06:45;;;;;;;7.75;2.10;;;16.80;99.90;;;;;;4125109;28;20070;-94
2022/06/28 07:08:52;;;;;;;7.50;2.50;;;16.80;99.90;;;;;;4120430;28;20129;-95
2022/06/28 07:11:02;;;;;;;9.30;2.25;;;16.90;99.90;;;;;;4125795;28;20074;-94
2022/06/28 07:13:07;;;;;;;5.93;2.63;;;17.00;99.90;;;;;;4130954;28;20049;-95
2022/06/28 07:15:14;;;;;;;6.88;2.03;;;17.10;99.90;;;;;;4128482;28;20070;-95
2022/06/28 07:17:20;;;;;;;4.90;1.83;;;17.00;99.90;;;;;;4130008;28;20022;-94
2022/06/28 07:19:25;;;;;;;9.30;1.73;;;17.10;99.90;;;;;;4141841;28;20042;-96
2022/06/28 07:21:27;;;;;;;20.63;2.97;;;17.10;99.90;;;;;;4139086;28;20046;-94
2022/06/28 07:23:30;;;;;;;5.45;1.90;;;17.20;99.90;;;;;;4136598;28;20085;-95
2022/06/28 07:25:31;;;;;;;7.28;1.85;;;17.30;99.90;;;;;;4137796;28;20064;-94
2022/06/28 07:27:32;;;;;;;7.15;2.00;;;17.40;99.90;;;;;;4135317;28;20081;-94
2022/06/28 07:33:46;;;;;;;8.20;1.50;;;17.40;99.90;;;;;;4188135;28;20070;-93
2022/06/28 07:35:47;;;;;;;2.95;1.40;;;17.50;99.90;;;;;;4168786;28;20049;-93
2022/06/28 07:37:49;;;;;;;8.57;1.67;;;17.50;99.90;;;;;;4168089;28;20043;-94
2022/06/28 07:39:51;;;;;;;8.48;2.13;;;17.60;99.90;;;;;;4167497;28;20050;-94
2022/06/28 07:41:53;;;;;;;5.57;1.20;;;17.60;99.90;;;;;;4169248;28;20049;-93
2022/06/28 07:43:54;;;;;;;11.93;1.65;;;17.80;99.90;;;;;;4169355;28;20111;-93
2022/06/28 07:45:55;;;;;;;12.10;1.70;;;17.60;99.90;;;;;;4184405;28;20136;-93
2022/06/28 07:47:58;;;;;;;8.73;2.35;;;17.90;99.90;;;;;;4184837;28;20053;-94
2022/06/28 07:52:38;;;;;;;;;;;18.10;99.90;;;;;;4134893;28;20065;-93
2022/06/28 07:54:40;;;;;;;5.68;1.58;;;18.30;99.90;;;;;;4102052;29;19922;-93
2022/06/28 07:56:42;;;;;;;3.13;0.95;;;18.40;99.90;;;;;;4118750;28;20530;-94
2022/06/28 07:58:45;;;;;;;8.23;1.38;;;18.50;99.90;;;;;;4182450;28;20084;-95
2022/06/28 08:00:46;;;;;;;7.15;1.20;;;18.60;99.90;;;;;;4185830;28;20566;-94
2022/06/28 08:02:47;;;;;;;6.32;1.17;;;18.60;99.90;;;;;;4184518;28;20049;-95
2022/06/28 08:04:57;;;;;;;7.93;1.25;;;18.50;99.90;;;;;;4186329;28;20049;-94
2022/06/28 08:07:00;;;;;;;7.75;1.33;;;18.70;99.90;;;;;;4168812;28;20049;-94
2022/06/28 08:09:01;;;;;;;4.40;1.10;;;18.80;99.90;;;;;;4182482;28;20485;-94
2022/06/28 08:11:03;;;;;;;8.18;1.73;;;18.80;99.90;;;;;;4185376;28;20051;-94
2022/06/28 08:13:06;;;;;;;2.85;0.52;;;19.10;99.90;;;;;;4172240;28;20132;-94
2022/06/28 08:15:07;;;;;;;5.47;0.93;;;19.10;99.90;;;;;;4174248;28;20167;-94
2022/06/28 08:17:17;;;;;;;9.57;1.40;;;19.10;99.90;;;;;;4153877;28;20037;-95
2022/06/28 08:19:33;;;;;;;4.00;1.13;;;19.00;99.90;;;;;;4153708;28;20061;-93
2022/06/28 08:21:52;;;;;;;3.25;1.00;;;19.20;99.90;;;;;;4185806;28;20052;-94
2022/06/28 08:24:01;;;;;;;;;;;19.10;99.50;;;;;;4201916;28;20542;-95
2022/06/28 08:26:05;;;;;;;5.82;1.50;;;19.00;97.60;;;;;;4152669;28;20300;-96
2022/06/28 08:28:05;;;;;;;4.75;1.17;;;19.10;99.90;;;;;;4152019;28;20046;-94
2022/06/28 08:30:07;;;;;;;3.83;0.80;;;19.10;99.90;;;;;;4153793;28;20042;-94
2022/06/28 08:32:08;;;;;;;4.72;0.70;;;19.10;99.50;;;;;;4171271;28;20060;-96
2022/06/28 08:37:31;;;;;;;3.25;0.70;;;19.00;96.30;;;;;;4202182;28;20090;-93
2022/06/28 08:39:32;;;;;;;4.63;0.93;;;19.20;98.70;;;;;;4168333;28;20066;-96
2022/06/28 08:41:34;;;;;;;8.00;1.17;;;19.20;97.10;;;;;;4167575;28;20101;-93
2022/06/28 08:43:43;;;;;;;4.22;0.95;;;19.20;97.70;;;;;;4168484;28;20033;-96
2022/06/28 08:45:54;;;;;;;3.85;0.82;;;19.30;96.20;;;;;;4168205;28;20038;-95
2022/06/28 08:47:56;;;;;;;7.40;1.25;;;19.60;98.30;;;;;;4166277;28;20038;-95
2022/06/28 08:56:15;;;;;;;3.63;0.75;;;20.20;94.20;;;;;;4195181;28;20055;-94
2022/06/28 08:58:17;;;;;;;5.97;0.90;;;20.50;95.00;;;;;;4168478;28;20113;-95
2022/06/28 09:00:23;;;;;;;2.92;1.02;;;20.50;94.40;;;;;;4168841;28;20033;-94
2022/06/28 09:02:31;;;;;;;6.63;1.58;;;20.60;93.90;;;;;;4168362;28;20041;-93
2022/06/28 09:04:38;;;;;;;4.70;1.00;;;20.70;92.70;;;;;;4168541;28;20074;-94
2022/06/28 09:06:41;;;;;;;5.72;0.85;;;20.60;93.10;;;;;;4168016;28;20060;-95
2022/06/28 09:09:26;;;;;;;4.95;0.80;;;20.60;93.20;;;;;;4168567;28;20040;-95
2022/06/28 09:11:46;;;;;;;2.33;0.80;;;20.60;91.60;;;;;;4168645;28;20046;-95
2022/06/28 09:20:05;;;;;;;3.00;0.70;;;20.30;94.10;;;;;;4182583;28;20049;-88
2022/06/28 09:22:08;;;;;;;3.33;0.63;;;20.40;93.20;;;;;;4180937;28;20047;-89
2022/06/28 09:24:09;;;;;;;5.00;0.82;;;20.80;94.20;;;;;;4184372;28;20045;-95
2022/06/28 09:26:20;;;;;;;2.97;0.70;;;21.10;94.20;;;;;;4169939;28;20057;-95
2022/06/28 09:28:29;;;;;;;4.80;1.57;;;21.20;93.00;;;;;;4169204;28;20053;-93
2022/06/28 09:30:31;;;;;;;5.47;0.88;;;21.40;92.90;;;;;;4152947;28;20034;-92
2022/06/28 09:32:34;;;;;;;2.25;0.70;;;21.30;91.20;;;;;;4164900;28;20562;-94
2022/06/28 09:34:39;;;;;;;2.05;0.77;;;21.30;90.50;;;;;;4168850;28;20544;-95
2022/06/28 09:36:55;;;;;;;3.78;0.68;;;21.20;90.20;;;;;;4162042;28;20109;-95
2022/06/28 09:38:59;;;;;;;5.90;0.63;;;20.90;89.90;;;;;;4164010;28;20046;-94
2022/06/28 09:41:00;;;;;;;4.63;0.90;;;20.80;91.20;;;;;;4160941;28;20488;-95
2022/06/28 09:43:14;;;;;;;4.43;1.30;;;20.80;91.20;;;;;;4166053;28;20041;-95
2022/06/28 09:45:16;;;;;;;6.82;0.82;;;21.00;90.70;;;;;;4161947;28;20046;-93
2022/06/28 09:47:18;;;;;;;6.90;0.88;;;21.00;90.40;;;;;;4160494;28;20486;-96
2022/06/28 09:49:27;;;;;;;4.28;0.77;;;20.90;90.00;;;;;;4159783;28;20510;-95
2022/06/28 09:51:32;;;;;;;4.32;0.90;;;20.90;89.60;;;;;;4159757;28;20069;-94
2022/06/28 09:53:43;;;;;;;5.45;1.67;;;20.70;90.40;;;;;;4154296;28;20401;-94
2022/06/28 09:55:45;;;;;;;3.40;0.80;;;20.80;90.90;;;;;;4153600;28;20049;-95
2022/06/28 09:57:50;;;;;;;3.67;0.75;;;20.70;90.30;;;;;;4158129;28;20080;-93
2022/06/28 09:59:54;;;;;;;6.90;1.35;;;20.60;90.40;;;;;;4172552;28;20085;-96
2022/06/28 10:01:55;;;;;;;3.80;0.75;;;20.50;90.90;;;;;;4172248;28;20045;-94
2022/06/28 10:04:00;;;;;;;4.13;0.88;;;20.50;91.10;;;;;;4172102;28;20049;-95
2022/06/28 10:06:02;;;;;;;3.65;0.75;;;20.60;91.00;;;;;;4171304;28;20041;-94
2022/06/28 10:08:05;;;;;;;4.47;0.70;;;20.70;90.70;;;;;;4169962;28;20038;-95
2022/06/28 10:10:10;;;;;;;4.60;1.00;;;20.70;90.30;;;;;;4169781;28;20056;-94
2022/06/28 10:17:41;;;;;;;7.75;0.90;;;21.40;89.00;;;;;;4188048;28;20122;-96
2022/06/28 10:19:44;;;;;;;5.25;0.73;;;21.80;86.70;;;;;;4105654;28;20603;-96
2022/06/28 10:22:10;;;;;;;8.82;1.13;;;22.10;85.90;;;;;;4135939;28;20146;-95
2022/06/28 10:25:01;;;;;;;8.93;1.88;;;22.20;83.30;;;;;;4136350;28;20137;-95
2022/06/28 10:27:17;;;;;;;6.57;0.98;;;22.40;81.40;;;;;;4139194;28;20090;-96
2022/06/28 10:29:24;;;;;;;5.72;0.82;;;22.20;75.80;;;;;;4137573;28;20046;-95
2022/06/28 10:31:24;;;;;;;5.22;1.13;;;21.90;80.40;;;;;;4137953;28;20492;-96
2022/06/28 10:34:01;;;;;;;3.60;0.90;;;21.90;81.50;;;;;;4136962;28;20070;-94
2022/06/28 10:36:13;;;;;;;4.38;1.02;;;22.20;78.80;;;;;;4152100;28;20165;-94
2022/06/28 10:38:15;;;;;;;4.10;0.60;;;22.20;74.30;;;;;;4137525;28;20041;-95
2022/06/28 10:40:45;;;;;;;4.00;1.73;;;22.30;80.50;;;;;;4137316;28;20084;-96
2022/06/28 10:42:50;;;;;;;4.25;0.90;;;22.60;78.30;;;;;;4130767;28;20067;-96
2022/06/28 10:44:57;;;;;;;3.70;0.80;;;22.70;80.60;;;;;;4135510;28;20514;-96
2022/06/28 10:47:19;;;;;;;4.85;1.17;;;22.90;81.10;;;;;;4135814;28;20042;-96
2022/06/28 10:49:20;;;;;;;5.05;0.70;;;23.00;79.40;;;;;;4135954;28;20050;-96
2022/06/28 10:51:35;;;;;;;4.10;1.35;;;23.00;78.60;;;;;;4134889;28;20034;-96
2022/06/28 10:54:07;;;;;;;4.40;0.95;;;23.00;74.30;;;;;;4136684;28;20086;-96
2022/06/28 10:56:13;;;;;;;6.47;1.10;;;22.90;65.60;;;;;;4136981;28;20084;-96
2022/06/28 10:58:22;;;;;;;3.47;0.88;;;23.00;75.70;;;;;;4134892;28;20052;-96
2022/06/28 11:00:26;;;;;;;2.67;0.98;;;23.40;75.00;;;;;;4136513;28;20049;-96
2022/06/28 11:05:55;;;;;;;4.20;0.82;;;23.50;68.80;;;;;;4187330;28;20079;-96
2022/06/28 11:08:07;;;;;;;4.28;1.13;;;23.60;72.80;;;;;;4153197;28;20509;-96
2022/06/28 11:10:28;;;;;;;4.32;0.90;;;23.80;70.20;;;;;;4134992;28;20049;-96
2022/06/28 11:12:45;;;;;;;4.80;0.82;;;23.90;67.10;;;;;;4134105;28;20066;-95
2022/06/28 11:15:29;;;;;;;5.70;0.93;;;23.90;69.60;;;;;;4134807;28;20046;-95
2022/06/28 11:17:44;;;;;;;5.07;0.85;;;23.70;71.30;;;;;;4156218;28;20064;-96
2022/06/28 11:19:53;;;;;;;4.07;0.80;;;23.70;73.90;;;;;;4140594;28;20151;-95
2022/06/28 11:21:56;;;;;;;3.88;1.10;;;23.80;72.10;;;;;;4150088;28;20053;-96
2022/06/28 11:24:01;;;;;;;5.32;1.50;;;23.90;73.40;;;;;;4140109;28;20140;-95
2022/06/28 11:28:56;;;;;;;6.68;1.48;;;23.90;72.40;;;;;;4152761;28;20049;-95